Airport Weather Around the Area


KLVN - Lakeville, Minnesota, USA
Distance from station: ENE 4mi, 6km
Updated: Tue, 12-Dec-2017 11:35am CST

 Wind from calm
Wind: Calm
Temperature: 16°F , -9°C
Dew Point: 7°F , -14°C
Humidity: 67%
Barometer: 30.13 inHg , 1020.3 hPa
Visibility: 10 miles , 16 km
2017/12/12 17:35 KLVN 121735Z AUTO 00000KT 10SM M09/M14 A3013 RMK AO2
KFCM - Eden Prairie, Minnesota, USA
Distance from station: NNW 17mi, 28km
Updated: Tue, 12-Dec-2017 11:53am CST
Overcast
Overcast
 Wind from SSW
Wind: SSW 6 mph , 9 km/h
Temperature: 18°F , -8°C
Wind Chill: 10°F , -12°C
Dew Point: 9°F , -13°C
Humidity: 68%
Barometer: 30.11 inHg , 1019.6 hPa
Clouds: Overcast
Visibility: 10 miles , 16 km
Cloud details: Mostly Cloudy 2500 ft
Overcast 3500 ft
2017/12/12 17:53 KFCM 121753Z 20005KT 10SM BKN025 OVC035 M08/M13 A3011 RMK AO2 SLP213 T10831133 11083 21139 56030
 
KSYN - Stanton, Minnesota, USA
Distance from station: SE 18mi, 28km
Updated: Tue, 12-Dec-2017 11:55am CST
Overcast
Overcast
 Wind from SW
Wind: SW 5 mph , 7 km/h
Temperature: 18°F , -8°C
Wind Chill: 11°F , -12°C
Dew Point: 9°F , -13°C
Humidity: 68%
Barometer: 30.12 inHg , 1020 hPa
Clouds: Overcast
Visibility: 10 miles , 16 km
Cloud details: Mostly Cloudy 2800 ft
Mostly Cloudy 3700 ft
Overcast 7000 ft
2017/12/12 17:55 KSYN 121755Z AUTO 22004KT 10SM BKN028 BKN037 OVC070 M08/M13 A3012 RMK AO2 T10801132 11080 21143
KFBL - Faribault, Minnesota, USA
Distance from station: S 19mi, 31km
Updated: Tue, 12-Dec-2017 11:55am CST
Overcast
Overcast
 Wind from S
Wind: S 6 mph , 9 km/h
Temperature: 18°F , -8°C
Wind Chill: 10°F , -12°C
Dew Point: 9°F , -13°C
Humidity: 68%
Barometer: 30.12 inHg , 1020 hPa
Clouds: Overcast
Visibility: 10 miles , 16 km
Cloud details: Partly Cloudy 2900 ft
Mostly Cloudy 4100 ft
Overcast 5000 ft
2017/12/12 17:55 KFBL 121755Z AUTO 19005KT 10SM SCT029 BKN041 OVC050 M08/M13 A3012 RMK AO2
 
KMSP - Minneapolis, Minnesota, USA
Distance from station: N 19mi, 31km
Updated: Tue, 12-Dec-2017 11:53am CST
Overcast
Overcast
 Wind from calm
Wind: Calm
Temperature: 16°F , -9°C
Dew Point: 7°F , -14°C
Humidity: 67%
Barometer: 30.13 inHg , 1020.3 hPa
Clouds: Overcast
Visibility: 10 miles , 16 km
Cloud details: Overcast 2500 ft
2017/12/12 17:53 KMSP 121753Z 00000KT 10SM OVC025 M09/M14 A3013 RMK AO2 SLP220 4/002 T10941139 11094 21144 58029